Time;durP1;ratioP1;P1;durP2;ratioP2;P2;SDS_P1;SDS_P2;PMS_P1;PMS_P2;Temp;Humidity;BMP_temperature;BMP_pressure;BME280_temperature;BME280_humidity;BME280_pressure;Samples;Min_cycle;Max_cycle;Signal;HPM_P1;HPM_P2
2021/12/28 00:00:23;;;;;;;13.63;2.15;;;6.00;99.90;;;;;;5052433;28;20063;-78
2021/12/28 00:02:50;;;;;;;12.68;2.30;;;5.90;99.90;;;;;;5053630;28;20020;-80
2021/12/28 00:05:17;;;;;;;10.07;2.10;;;6.00;99.90;;;;;;5053780;28;20024;-80
2021/12/28 00:07:43;;;;;;;5.45;2.20;;;5.90;99.90;;;;;;5053557;28;20495;-80
2021/12/28 00:10:12;;;;;;;11.82;2.15;;;5.90;99.90;;;;;;5052243;28;20017;-80
2021/12/28 00:12:38;;;;;;;7.32;1.98;;;5.90;99.90;;;;;;5052199;28;20017;-80
2021/12/28 00:15:19;;;;;;;9.23;1.90;;;5.80;99.90;;;;;;5052225;28;20477;-80
2021/12/28 00:18:02;;;;;;;6.65;1.95;;;5.90;99.90;;;;;;5053473;28;20074;-80
2021/12/28 00:20:34;;;;;;;3.95;1.80;;;5.90;99.90;;;;;;5052129;28;20098;-80
2021/12/28 00:23:02;;;;;;;9.93;1.98;;;5.90;99.90;;;;;;5051997;28;20028;-80
2021/12/28 00:25:28;;;;;;;8.48;2.47;;;5.80;99.90;;;;;;5053239;28;20087;-80
2021/12/28 00:27:54;;;;;;;8.30;2.17;;;5.90;99.90;;;;;;5052009;28;20033;-80
2021/12/28 00:30:21;;;;;;;11.77;2.13;;;5.90;99.90;;;;;;5051928;28;20111;-80
2021/12/28 00:32:52;;;;;;;8.40;2.20;;;5.90;99.90;;;;;;5051908;28;20484;-80
2021/12/28 00:35:19;;;;;;;7.63;1.92;;;5.90;99.90;;;;;;5051958;28;20025;-80
2021/12/28 00:37:44;;;;;;;5.57;1.92;;;5.80;99.90;;;;;;5051875;28;20190;-80
2021/12/28 00:40:11;;;;;;;8.77;2.63;;;5.80;99.90;;;;;;5051650;28;20636;-80
2021/12/28 00:42:36;;;;;;;12.70;2.20;;;5.70;99.90;;;;;;5051498;28;20044;-79
2021/12/28 00:45:03;;;;;;;8.35;2.22;;;5.80;99.90;;;;;;5051712;28;20025;-80
2021/12/28 00:47:29;;;;;;;16.40;2.88;;;5.90;99.90;;;;;;5051699;28;20029;-80
2021/12/28 00:49:56;;;;;;;9.85;1.98;;;5.90;99.90;;;;;;5051742;28;20501;-80
2021/12/28 00:52:22;;;;;;;10.15;2.40;;;5.90;99.90;;;;;;5053219;28;20017;-80
2021/12/28 00:54:48;;;;;;;11.57;2.45;;;6.00;99.90;;;;;;5051660;28;20021;-80
2021/12/28 00:57:14;;;;;;;8.23;2.03;;;5.90;99.90;;;;;;5051690;28;20380;-80
2021/12/28 00:59:39;;;;;;;12.30;2.40;;;5.90;99.90;;;;;;5051701;28;20071;-80
2021/12/28 01:02:05;;;;;;;11.57;2.40;;;6.00;99.90;;;;;;5052914;28;20025;-80
2021/12/28 01:04:31;;;;;;;8.48;2.42;;;6.00;99.90;;;;;;5051582;28;20028;-80
2021/12/28 01:06:58;;;;;;;12.07;2.22;;;5.90;99.90;;;;;;5051524;28;20506;-81
2021/12/28 01:09:30;;;;;;;9.25;2.13;;;5.90;99.90;;;;;;5051569;28;20500;-80
2021/12/28 01:11:57;;;;;;;19.27;2.58;;;6.00;99.90;;;;;;5052864;28;20027;-80
2021/12/28 01:14:23;;;;;;;14.63;3.30;;;6.00;99.90;;;;;;5051494;28;20021;-80
2021/12/28 01:16:48;;;;;;;10.75;2.15;;;5.90;99.90;;;;;;5051511;28;20075;-80
2021/12/28 01:19:14;;;;;;;8.05;1.70;;;5.80;99.90;;;;;;5052773;28;20366;-80
2021/12/28 01:21:40;;;;;;;6.53;2.10;;;5.80;99.90;;;;;;5052951;28;20060;-80
2021/12/28 01:24:06;;;;;;;15.25;2.30;;;5.80;99.90;;;;;;5052730;28;20064;-80
2021/12/28 01:26:32;;;;;;;13.95;2.75;;;5.70;99.90;;;;;;5051326;28;20079;-80
2021/12/28 01:28:57;;;;;;;19.50;2.47;;;5.70;99.90;;;;;;5051383;28;20452;-80
2021/12/28 01:31:23;;;;;;;14.95;2.65;;;5.70;99.90;;;;;;5052583;28;20013;-80
2021/12/28 01:33:49;;;;;;;11.63;2.00;;;5.70;99.90;;;;;;5051265;28;20416;-81
2021/12/28 01:36:15;;;;;;;7.95;2.35;;;5.70;99.90;;;;;;5051273;28;20044;-80
2021/12/28 01:38:41;;;;;;;11.20;2.00;;;5.70;99.90;;;;;;5051261;28;20030;-80
2021/12/28 01:41:10;;;;;;;7.57;1.60;;;5.70;99.90;;;;;;5052370;28;20495;-81
2021/12/28 01:43:39;;;;;;;12.25;1.98;;;5.70;99.90;;;;;;5051195;28;20032;-80
2021/12/28 01:46:05;;;;;;;20.10;2.78;;;5.70;99.90;;;;;;5051120;28;20029;-80
2021/12/28 01:48:35;;;;;;;11.32;1.98;;;5.70;99.90;;;;;;5052443;28;20029;-81
2021/12/28 01:51:16;;;;;;;11.55;2.30;;;5.70;99.90;;;;;;5052699;28;20025;-81
2021/12/28 01:53:43;;;;;;;12.02;2.28;;;5.70;99.90;;;;;;5051215;28;20017;-80
2021/12/28 01:56:12;;;;;;;8.57;1.83;;;5.70;99.90;;;;;;5055014;28;20124;-81
2021/12/28 01:58:38;;;;;;;16.98;2.85;;;5.70;99.90;;;;;;5056280;28;20021;-80
2021/12/28 02:01:06;;;;;;;15.80;2.47;;;5.70;99.90;;;;;;5054671;28;20036;-80
2021/12/28 02:03:33;;;;;;;10.00;2.42;;;5.70;99.90;;;;;;5055895;28;20029;-80
2021/12/28 02:05:59;;;;;;;21.75;2.78;;;5.60;99.90;;;;;;5055822;28;20469;-81
2021/12/28 02:08:25;;;;;;;14.90;2.42;;;5.60;99.90;;;;;;5055859;28;20024;-81
2021/12/28 02:10:53;;;;;;;17.00;2.17;;;5.60;99.90;;;;;;5054507;28;20458;-80
2021/12/28 02:13:20;;;;;;;10.80;2.28;;;5.60;99.90;;;;;;5054485;28;20021;-80
2021/12/28 02:15:46;;;;;;;17.85;2.17;;;5.60;99.90;;;;;;5054375;28;20036;-81
2021/12/28 02:18:15;;;;;;;15.73;2.38;;;5.60;99.90;;;;;;5055675;28;20049;-80
2021/12/28 02:20:41;;;;;;;18.02;2.28;;;5.60;99.90;;;;;;5054350;28;20028;-80
2021/12/28 02:23:07;;;;;;;12.52;2.50;;;5.60;99.90;;;;;;5054300;28;20025;-81
2021/12/28 02:25:35;;;;;;;18.95;2.70;;;5.60;99.90;;;;;;5055445;28;20049;-80
2021/12/28 02:28:02;;;;;;;19.08;3.00;;;5.60;99.90;;;;;;5055473;28;20017;-80
2021/12/28 02:30:28;;;;;;;15.52;2.53;;;5.70;99.90;;;;;;5054144;28;20021;-80
2021/12/28 02:32:54;;;;;;;15.63;2.88;;;5.70;99.90;;;;;;5054044;28;20115;-80
2021/12/28 02:35:23;;;;;;;22.38;2.92;;;5.80;99.90;;;;;;5054048;28;20029;-80
2021/12/28 02:37:50;;;;;;;19.27;2.60;;;5.90;99.90;;;;;;5055275;28;20024;-80
2021/12/28 02:40:19;;;;;;;23.02;3.08;;;5.90;99.90;;;;;;5055019;28;20493;-80
2021/12/28 02:42:46;;;;;;;10.68;2.45;;;5.90;99.90;;;;;;5055185;28;20095;-80
2021/12/28 02:45:19;;;;;;;10.65;1.77;;;5.90;99.90;;;;;;5053793;28;20067;-80
2021/12/28 02:47:46;;;;;;;14.57;2.38;;;5.90;99.90;;;;;;5053851;28;20541;-80
2021/12/28 02:50:19;;;;;;;20.17;2.97;;;5.90;99.90;;;;;;5053823;28;20481;-80
2021/12/28 02:52:44;;;;;;;15.82;2.20;;;5.90;99.90;;;;;;5053768;28;20485;-80
2021/12/28 02:55:13;;;;;;;23.67;3.00;;;6.00;99.90;;;;;;5055018;28;20025;-80
2021/12/28 02:57:47;;;;;;;20.05;2.88;;;5.90;99.90;;;;;;5054909;28;20024;-80
2021/12/28 03:00:14;;;;;;;12.90;2.22;;;5.90;99.90;;;;;;5053697;28;20025;-80
2021/12/28 03:02:40;;;;;;;15.55;2.70;;;5.90;99.90;;;;;;5053535;28;20082;-80
2021/12/28 03:05:06;;;;;;;11.63;2.47;;;5.90;99.90;;;;;;5053427;28;20028;-80
2021/12/28 03:07:31;;;;;;;20.70;3.05;;;5.90;99.90;;;;;;5053312;28;20025;-80
2021/12/28 03:09:57;;;;;;;21.17;3.25;;;5.80;99.90;;;;;;5053788;28;20481;-80
2021/12/28 03:12:23;;;;;;;23.67;3.25;;;5.90;99.90;;;;;;5053364;28;20024;-80
2021/12/28 03:14:49;;;;;;;20.48;2.72;;;5.80;99.90;;;;;;5054601;28;20025;-80
2021/12/28 03:17:15;;;;;;;10.63;2.25;;;5.90;99.90;;;;;;5054133;28;20469;-80
2021/12/28 03:19:41;;;;;;;10.23;2.60;;;5.90;99.90;;;;;;5054503;28;20082;-80
2021/12/28 03:22:07;;;;;;;15.70;2.35;;;5.90;99.90;;;;;;5054987;28;20033;-80
2021/12/28 03:24:32;;;;;;;14.45;2.20;;;5.90;99.90;;;;;;5053108;28;20021;-79
2021/12/28 03:26:58;;;;;;;15.60;2.30;;;6.00;99.90;;;;;;5054510;28;20105;-80
2021/12/28 03:29:24;;;;;;;17.13;2.40;;;6.00;99.90;;;;;;5054357;28;20027;-80
2021/12/28 03:31:49;;;;;;;9.68;2.20;;;6.00;99.90;;;;;;5052963;28;20017;-80
2021/12/28 03:34:15;;;;;;;12.10;2.33;;;6.00;99.90;;;;;;5054211;28;20485;-79
2021/12/28 03:36:41;;;;;;;13.13;2.63;;;6.00;99.90;;;;;;5054160;28;20435;-82
2021/12/28 03:39:07;;;;;;;11.85;2.05;;;6.00;99.90;;;;;;5052860;28;20029;-79
2021/12/28 03:41:33;;;;;;;15.98;2.15;;;6.10;99.90;;;;;;5052595;28;20053;-81
2021/12/28 03:44:01;;;;;;;11.95;2.00;;;6.10;99.90;;;;;;5052676;28;20029;-81
2021/12/28 03:46:28;;;;;;;14.00;2.10;;;6.10;99.90;;;;;;5052613;28;20400;-80
2021/12/28 03:48:55;;;;;;;11.07;2.03;;;6.20;99.90;;;;;;5053866;28;20064;-80
2021/12/28 03:51:21;;;;;;;11.13;1.80;;;6.10;99.90;;;;;;5052595;28;20031;-81
2021/12/28 03:53:47;;;;;;;16.67;2.10;;;6.20;99.90;;;;;;5054101;28;20025;-82
2021/12/28 03:56:14;;;;;;;12.38;1.98;;;6.20;99.90;;;;;;5052560;28;20135;-81
2021/12/28 03:58:42;;;;;;;12.45;2.40;;;6.20;99.90;;;;;;5052461;28;20029;-81
2021/12/28 04:01:10;;;;;;;10.45;1.77;;;6.20;99.90;;;;;;5053684;28;20385;-82
2021/12/28 04:03:36;;;;;;;14.38;2.30;;;6.20;99.90;;;;;;5053646;28;20543;-81
2021/12/28 04:06:07;;;;;;;15.40;2.70;;;6.20;99.90;;;;;;5053803;28;20025;-81
2021/12/28 04:08:34;;;;;;;12.70;2.13;;;6.30;99.90;;;;;;5053903;28;20021;-81
2021/12/28 04:11:15;;;;;;;7.38;1.95;;;6.30;99.90;;;;;;5052280;28;20021;-81
2021/12/28 04:13:43;;;;;;;11.25;1.92;;;6.30;99.90;;;;;;5052245;28;20036;-81
2021/12/28 04:16:09;;;;;;;9.10;2.15;;;6.30;99.90;;;;;;5052176;28;20111;-81
2021/12/28 04:18:35;;;;;;;8.93;1.60;;;6.30;99.90;;;;;;5051581;28;20120;-81
2021/12/28 04:21:02;;;;;;;9.90;1.60;;;6.30;99.90;;;;;;5053420;28;20079;-81
2021/12/28 04:23:27;;;;;;;7.95;1.40;;;6.40;99.90;;;;;;5052034;28;20389;-81
2021/12/28 04:25:53;;;;;;;10.75;2.22;;;6.30;99.90;;;;;;5053205;28;20028;-81
2021/12/28 04:28:19;;;;;;;11.68;2.08;;;6.40;99.90;;;;;;5051990;28;20032;-80
2021/12/28 04:30:44;;;;;;;7.57;1.40;;;6.40;99.90;;;;;;5053242;28;20389;-81
2021/12/28 04:33:10;;;;;;;11.82;2.30;;;6.40;99.90;;;;;;5051945;28;20017;-81
2021/12/28 04:35:36;;;;;;;10.15;1.50;;;6.30;99.90;;;;;;5051872;28;20165;-81
2021/12/28 04:38:02;;;;;;;11.85;1.70;;;6.30;99.90;;;;;;5051865;28;20532;-79
2021/12/28 04:40:28;;;;;;;7.07;1.75;;;6.30;99.90;;;;;;5052936;28;20500;-81
2021/12/28 04:42:54;;;;;;;8.93;1.67;;;6.30;99.90;;;;;;5051835;28;20025;-81
2021/12/28 04:45:20;;;;;;;11.07;1.60;;;6.30;99.90;;;;;;5053012;28;20020;-81
2021/12/28 04:47:45;;;;;;;14.98;2.15;;;6.40;99.90;;;;;;5051694;28;20024;-82
2021/12/28 04:50:13;;;;;;;15.07;1.98;;;6.30;99.90;;;;;;5051760;28;20482;-80
2021/12/28 04:52:41;;;;;;;10.52;1.73;;;6.40;99.90;;;;;;5051762;28;20021;-78
2021/12/28 04:55:15;;;;;;;8.75;1.70;;;6.30;99.90;;;;;;5052962;28;20017;-81
2021/12/28 04:57:41;;;;;;;9.02;1.98;;;6.30;99.90;;;;;;5052965;28;20025;-81
2021/12/28 05:00:11;;;;;;;12.57;1.73;;;6.30;99.90;;;;;;5052895;28;20053;-81
2021/12/28 05:02:37;;;;;;;10.30;2.10;;;6.30;99.90;;;;;;5051616;28;20032;-81
2021/12/28 05:05:03;;;;;;;8.45;1.80;;;6.40;99.90;;;;;;5051509;28;20385;-81
2021/12/28 05:07:30;;;;;;;6.97;1.88;;;6.40;99.90;;;;;;5053105;28;20100;-81
2021/12/28 05:09:58;;;;;;;9.63;1.60;;;6.40;99.90;;;;;;5051527;28;20036;-80
2021/12/28 05:12:26;;;;;;;9.05;1.40;;;6.30;99.90;;;;;;5052819;28;20070;-81
2021/12/28 05:14:51;;;;;;;9.35;1.55;;;6.30;99.90;;;;;;5052844;28;20036;-81
2021/12/28 05:17:17;;;;;;;9.90;2.00;;;6.30;99.90;;;;;;5051559;28;20025;-81
2021/12/28 05:19:43;;;;;;;8.75;2.00;;;6.30;99.90;;;;;;5052753;28;20096;-81
2021/12/28 05:22:09;;;;;;;10.90;1.90;;;6.30;99.90;;;;;;5052703;28;20024;-81
2021/12/28 05:24:36;;;;;;;6.35;1.60;;;6.30;99.90;;;;;;5051488;28;20025;-80
2021/12/28 05:27:02;;;;;;;8.38;1.75;;;6.30;99.90;;;;;;5051375;28;20435;-81
2021/12/28 05:29:28;;;;;;;10.48;1.85;;;6.30;99.90;;;;;;5051758;28;20079;-81
2021/12/28 05:31:54;;;;;;;6.47;1.38;;;6.30;99.90;;;;;;5056576;28;20017;-80
2021/12/28 05:34:20;;;;;;;8.43;1.95;;;6.40;99.90;;;;;;5055218;28;20057;-81
2021/12/28 05:36:46;;;;;;;7.95;1.85;;;6.30;99.90;;;;;;5056437;28;20047;-81
2021/12/28 05:39:12;;;;;;;6.43;2.03;;;6.30;99.90;;;;;;5056672;28;20091;-81
2021/12/28 05:41:38;;;;;;;5.68;1.90;;;6.30;99.90;;;;;;5054948;28;20143;-81
2021/12/28 05:44:04;;;;;;;7.03;1.73;;;6.30;99.90;;;;;;5055020;28;20477;-81
2021/12/28 05:46:30;;;;;;;10.18;2.20;;;6.30;99.90;;;;;;5056171;28;20393;-80
2021/12/28 05:48:56;;;;;;;11.07;2.00;;;6.40;99.90;;;;;;5055158;28;20025;-81
2021/12/28 05:51:22;;;;;;;5.07;1.73;;;6.40;99.90;;;;;;5056482;28;20480;-81
2021/12/28 05:53:48;;;;;;;4.65;1.48;;;6.40;99.90;;;;;;5054878;28;20021;-81
2021/12/28 05:56:13;;;;;;;7.22;2.00;;;6.40;99.90;;;;;;5054832;28;20031;-81
2021/12/28 05:58:39;;;;;;;5.30;1.52;;;6.40;99.90;;;;;;5054794;28;20021;-81
2021/12/28 06:01:05;;;;;;;4.30;1.52;;;6.40;99.90;;;;;;5056021;28;20104;-81
2021/12/28 06:03:31;;;;;;;6.70;1.90;;;6.40;99.90;;;;;;5054673;28;20167;-80
2021/12/28 06:05:57;;;;;;;8.20;2.00;;;6.40;99.90;;;;;;5054608;28;20067;-81
2021/12/28 06:08:23;;;;;;;8.70;1.63;;;6.40;99.90;;;;;;5054614;28;20459;-81
2021/12/28 06:10:48;;;;;;;8.18;1.90;;;6.40;99.90;;;;;;5054548;28;20025;-81
2021/12/28 06:13:14;;;;;;;7.63;2.08;;;6.40;99.90;;;;;;5056010;28;20082;-82
2021/12/28 06:15:40;;;;;;;6.85;2.38;;;6.40;99.90;;;;;;5054415;28;20033;-82
2021/12/28 06:18:06;;;;;;;6.80;1.73;;;6.40;99.90;;;;;;5054440;28;20497;-80
2021/12/28 06:20:32;;;;;;;4.53;1.55;;;6.30;99.90;;;;;;5055597;28;20063;-80
2021/12/28 06:22:57;;;;;;;7.78;2.13;;;6.40;99.90;;;;;;5054331;28;20113;-81
2021/12/28 06:25:23;;;;;;;4.45;2.05;;;6.40;99.90;;;;;;5054239;28;20021;-80
2021/12/28 06:27:49;;;;;;;4.55;1.90;;;6.40;99.90;;;;;;5054222;28;20381;-81
2021/12/28 06:30:15;;;;;;;5.43;2.20;;;6.40;99.90;;;;;;5054187;28;20039;-81
2021/12/28 06:32:41;;;;;;;3.97;1.80;;;6.40;99.90;;;;;;5054403;28;20548;-81
2021/12/28 06:35:08;;;;;;;3.40;1.75;;;6.50;99.90;;;;;;5054140;28;20017;-82
2021/12/28 06:37:34;;;;;;;3.58;2.00;;;6.50;99.90;;;;;;5054884;28;20044;-81
2021/12/28 06:40:00;;;;;;;6.18;1.80;;;6.50;99.90;;;;;;5055082;28;20504;-80
2021/12/28 06:42:26;;;;;;;7.47;1.90;;;6.50;99.90;;;;;;5053483;28;20032;-81
2021/12/28 06:44:52;;;;;;;5.78;2.00;;;6.50;99.90;;;;;;5055217;28;20435;-82
2021/12/28 06:47:19;;;;;;;3.30;1.80;;;6.50;99.90;;;;;;5055018;28;20100;-81
2021/12/28 06:49:45;;;;;;;6.45;2.80;;;6.50;99.90;;;;;;5053835;28;20033;-81
2021/12/28 06:52:12;;;;;;;5.70;1.98;;;6.50;99.90;;;;;;5053748;28;20032;-81
2021/12/28 06:54:39;;;;;;;2.55;1.80;;;6.50;99.90;;;;;;5054946;28;20021;-80
2021/12/28 06:57:09;;;;;;;2.92;2.00;;;6.50;99.90;;;;;;5055132;28;20033;-81
2021/12/28 06:59:45;;;;;;;6.22;2.08;;;6.60;99.90;;;;;;5053534;28;20025;-81
2021/12/28 07:02:13;;;;;;;2.67;1.75;;;6.60;99.90;;;;;;5053483;28;20025;-81
2021/12/28 07:04:39;;;;;;;5.93;2.10;;;6.60;99.90;;;;;;5054641;28;20020;-83
2021/12/28 07:07:05;;;;;;;2.97;2.03;;;6.50;99.90;;;;;;5053292;28;20032;-81
2021/12/28 07:09:31;;;;;;;3.50;1.52;;;6.60;99.90;;;;;;5054581;28;20082;-82
2021/12/28 07:11:57;;;;;;;4.53;2.00;;;6.70;99.90;;;;;;5053244;28;20021;-80
2021/12/28 07:14:23;;;;;;;4.47;1.88;;;6.60;99.90;;;;;;5053189;28;20489;-81
2021/12/28 07:16:49;;;;;;;3.33;1.92;;;6.70;99.90;;;;;;5053429;28;20554;-81
2021/12/28 07:19:14;;;;;;;4.05;1.80;;;6.70;99.90;;;;;;5053092;28;20029;-81
2021/12/28 07:21:41;;;;;;;3.53;1.90;;;6.70;99.90;;;;;;5053017;28;20025;-80
2021/12/28 07:24:09;;;;;;;2.45;1.67;;;6.70;99.90;;;;;;5052999;28;20017;-80
2021/12/28 07:26:35;;;;;;;4.55;1.90;;;6.70;99.90;;;;;;5054178;28;20127;-81
2021/12/28 07:29:02;;;;;;;7.53;1.73;;;6.70;99.90;;;;;;5052926;28;20431;-81
2021/12/28 07:31:28;;;;;;;6.90;2.10;;;6.70;99.90;;;;;;5053044;28;20031;-81
2021/12/28 07:33:54;;;;;;;2.83;1.65;;;6.70;99.90;;;;;;5052841;28;20167;-81
2021/12/28 07:36:20;;;;;;;2.72;1.98;;;6.70;99.90;;;;;;5052794;28;20112;-81
2021/12/28 07:38:46;;;;;;;2.30;1.38;;;6.80;99.90;;;;;;5052776;28;20049;-81
2021/12/28 07:41:12;;;;;;;3.80;1.90;;;6.80;99.90;;;;;;5052488;28;20128;-81
2021/12/28 07:43:37;;;;;;;3.83;1.75;;;6.80;99.90;;;;;;5053879;28;20159;-82
2021/12/28 07:46:03;;;;;;;3.13;1.58;;;6.80;99.90;;;;;;5053788;28;20104;-81
2021/12/28 07:48:31;;;;;;;3.33;1.63;;;6.80;99.90;;;;;;5053985;28;20400;-81
2021/12/28 07:50:57;;;;;;;3.92;1.77;;;6.80;99.90;;;;;;5052448;28;20025;-81
2021/12/28 07:53:23;;;;;;;2.38;1.30;;;6.80;99.90;;;;;;5051577;28;20021;-81
2021/12/28 07:55:49;;;;;;;2.70;1.35;;;6.80;99.90;;;;;;5052422;28;20028;-81
2021/12/28 07:58:15;;;;;;;2.47;1.33;;;6.90;99.90;;;;;;5052379;28;20061;-80
2021/12/28 08:00:41;;;;;;;2.90;1.40;;;7.00;99.90;;;;;;5053625;28;20025;-80
2021/12/28 08:03:07;;;;;;;1.88;1.63;;;7.00;99.90;;;;;;5053851;28;20028;-81
2021/12/28 08:05:33;;;;;;;2.22;1.50;;;7.00;99.90;;;;;;5053486;28;20523;-81
2021/12/28 08:07:59;;;;;;;1.67;1.10;;;6.90;99.90;;;;;;5052698;28;20078;-81
2021/12/28 08:10:25;;;;;;;1.25;0.88;;;6.90;99.90;;;;;;5052424;28;20428;-81
2021/12/28 08:12:54;;;;;;;2.65;1.23;;;7.00;99.90;;;;;;5053431;28;20470;-81
2021/12/28 08:15:21;;;;;;;1.95;1.13;;;7.00;99.90;;;;;;5052065;28;20025;-81
2021/12/28 08:17:47;;;;;;;2.80;1.23;;;7.00;99.90;;;;;;5051994;28;20021;-81
2021/12/28 08:20:14;;;;;;;3.25;0.98;;;7.00;99.90;;;;;;5051996;28;20032;-81
2021/12/28 08:22:40;;;;;;;3.17;1.60;;;7.10;99.90;;;;;;5053223;28;20021;-81
2021/12/28 08:25:08;;;;;;;4.43;1.98;;;7.10;99.90;;;;;;5051789;28;20119;-81
2021/12/28 08:27:34;;;;;;;1.42;0.90;;;7.10;99.90;;;;;;5052183;28;20052;-80
2021/12/28 08:30:00;;;;;;;4.25;0.90;;;7.10;99.90;;;;;;5051810;28;20425;-80
2021/12/28 08:32:26;;;;;;;1.33;1.08;;;7.10;99.90;;;;;;5053070;28;20031;-79
2021/12/28 08:34:52;;;;;;;1.85;1.30;;;7.00;99.90;;;;;;5053300;28;20104;-80
2021/12/28 08:37:18;;;;;;;1.60;1.00;;;7.00;99.90;;;;;;5052987;28;20031;-80
2021/12/28 08:39:43;;;;;;;2.40;1.85;;;7.10;99.90;;;;;;5052969;28;20025;-81
2021/12/28 08:42:09;;;;;;;1.80;1.10;;;7.00;99.90;;;;;;5051484;28;20052;-81
2021/12/28 08:44:35;;;;;;;3.10;1.20;;;7.10;99.90;;;;;;5051569;28;20393;-81
2021/12/28 08:47:02;;;;;;;3.63;0.90;;;7.10;99.90;;;;;;5051424;28;20115;-81
2021/12/28 08:49:27;;;;;;;0.75;0.63;;;7.10;99.90;;;;;;5052796;28;20167;-81
2021/12/28 08:51:54;;;;;;;1.33;1.10;;;7.10;99.90;;;;;;5051536;28;20155;-81
2021/12/28 08:54:20;;;;;;;2.08;0.85;;;7.10;99.90;;;;;;5051566;28;20045;-80
2021/12/28 08:56:47;;;;;;;0.85;0.80;;;7.20;99.90;;;;;;5053112;28;20118;-81
2021/12/28 08:59:13;;;;;;;4.82;2.70;;;7.20;99.90;;;;;;5052729;28;20025;-81
2021/12/28 09:01:40;;;;;;;1.63;0.90;;;7.20;99.90;;;;;;5051458;28;20057;-81
2021/12/28 09:04:05;;;;;;;0.95;0.70;;;7.20;99.90;;;;;;5053856;28;20029;-80
2021/12/28 09:06:31;;;;;;;4.72;0.88;;;7.20;99.90;;;;;;5055436;28;20036;-80
2021/12/28 09:08:57;;;;;;;3.20;0.63;;;7.30;99.90;;;;;;5057283;28;20025;-79
2021/12/28 09:11:23;;;;;;;2.95;1.10;;;7.30;99.90;;;;;;5056598;28;20028;-80
2021/12/28 09:13:50;;;;;;;2.35;0.80;;;7.30;99.90;;;;;;5056720;28;20473;-80
2021/12/28 09:16:15;;;;;;;1.65;0.70;;;7.30;99.90;;;;;;5055372;28;20025;-80
2021/12/28 09:18:42;;;;;;;1.70;0.80;;;7.40;99.90;;;;;;5055370;28;20107;-80
2021/12/28 09:21:08;;;;;;;1.13;0.70;;;7.40;99.90;;;;;;5055549;28;20029;-80
2021/12/28 09:23:35;;;;;;;2.05;0.73;;;7.50;99.90;;;;;;5055227;28;20047;-81
2021/12/28 09:26:01;;;;;;;1.30;0.63;;;7.50;99.90;;;;;;5056440;28;20104;-81
2021/12/28 09:28:26;;;;;;;1.98;0.88;;;7.50;99.90;;;;;;5055138;28;20496;-80
2021/12/28 09:30:52;;;;;;;0.95;0.90;;;7.50;99.90;;;;;;5055149;28;20021;-80
2021/12/28 09:33:19;;;;;;;1.92;0.68;;;7.40;99.90;;;;;;5056341;28;20017;-80
2021/12/28 09:35:45;;;;;;;1.73;0.80;;;7.50;99.90;;;;;;5056321;28;20099;-81
2021/12/28 09:38:11;;;;;;;2.08;0.80;;;7.50;99.90;;;;;;5055016;28;20111;-81
2021/12/28 09:40:38;;;;;;;2.22;0.85;;;7.70;99.90;;;;;;5054799;28;20449;-80
2021/12/28 09:43:07;;;;;;;2.42;0.90;;;7.70;99.90;;;;;;5056199;28;20037;-80
2021/12/28 09:45:34;;;;;;;1.00;0.73;;;7.70;99.90;;;;;;5054744;28;20416;-81
2021/12/28 09:48:00;;;;;;;3.50;0.95;;;7.70;99.90;;;;;;5054690;28;20025;-81
2021/12/28 09:50:26;;;;;;;1.10;0.90;;;7.80;99.90;;;;;;5054757;28;20463;-80
2021/12/28 09:52:52;;;;;;;1.98;0.80;;;7.90;99.90;;;;;;5055976;28;20021;-81
2021/12/28 09:55:23;;;;;;;2.10;0.80;;;7.90;99.90;;;;;;5054656;28;20075;-80
2021/12/28 09:57:50;;;;;;;3.10;0.77;;;7.90;99.90;;;;;;5054646;28;20492;-80
2021/12/28 10:00:18;;;;;;;1.23;0.70;;;8.00;99.90;;;;;;5054428;28;20025;-81
2021/12/28 10:02:43;;;;;;;2.15;0.80;;;8.00;99.90;;;;;;5054525;28;20428;-80
2021/12/28 10:05:12;;;;;;;1.55;1.17;;;8.00;99.90;;;;;;5055641;28;20096;-82
2021/12/28 10:07:47;;;;;;;2.00;0.82;;;7.90;99.90;;;;;;5055709;28;20017;-81
2021/12/28 10:10:13;;;;;;;1.63;0.90;;;7.90;99.90;;;;;;5054699;28;20032;-81
2021/12/28 10:12:42;;;;;;;2.03;1.02;;;8.00;99.90;;;;;;5054408;28;20034;-81
2021/12/28 10:15:17;;;;;;;2.88;1.70;;;8.00;99.90;;;;;;5055061;28;20024;-81
2021/12/28 10:17:45;;;;;;;1.25;0.68;;;8.00;99.90;;;;;;5054153;28;20500;-80
2021/12/28 10:20:15;;;;;;;1.80;1.33;;;8.10;99.90;;;;;;5054106;28;20078;-81
2021/12/28 10:22:46;;;;;;;1.00;0.75;;;8.10;99.90;;;;;;5054222;28;20021;-80
2021/12/28 10:25:22;;;;;;;1.73;1.00;;;8.40;99.90;;;;;;5054086;28;20394;-81
2021/12/28 10:27:52;;;;;;;0.82;0.82;;;8.60;99.90;;;;;;5054056;28;20056;-81
2021/12/28 10:30:21;;;;;;;1.42;0.82;;;8.60;99.90;;;;;;5053997;28;20025;-80
2021/12/28 10:32:50;;;;;;;1.80;0.90;;;8.60;99.90;;;;;;5053936;28;20025;-80
2021/12/28 10:35:27;;;;;;;1.00;0.70;;;8.70;99.90;;;;;;5055121;28;20021;-80
2021/12/28 10:37:58;;;;;;;1.55;1.08;;;8.70;99.90;;;;;;5055472;28;20078;-80
2021/12/28 10:40:36;;;;;;;2.10;1.38;;;8.70;99.90;;;;;;5055017;28;20397;-80
2021/12/28 10:43:02;;;;;;;1.45;0.90;;;8.80;99.90;;;;;;5053692;28;20112;-80
2021/12/28 10:45:36;;;;;;;1.67;1.10;;;8.90;99.90;;;;;;5054929;28;20017;-80
2021/12/28 10:48:18;;;;;;;2.92;1.10;;;9.00;99.90;;;;;;5055101;28;20038;-81
2021/12/28 10:51:00;;;;;;;3.58;1.98;;;9.10;99.90;;;;;;5053686;28;20025;-80
2021/12/28 10:53:36;;;;;;;2.47;1.38;;;9.40;99.90;;;;;;5054886;28;20021;-80
2021/12/28 10:56:04;;;;;;;2.20;1.20;;;9.60;99.90;;;;;;5053568;28;20032;-80
2021/12/28 10:58:40;;;;;;;2.50;1.30;;;9.40;99.90;;;;;;5053465;28;20439;-80
2021/12/28 11:01:11;;;;;;;5.07;2.08;;;9.50;99.90;;;;;;5053465;28;20110;-80
2021/12/28 11:03:40;;;;;;;3.80;2.33;;;9.70;99.90;;;;;;5053441;28;20032;-81
2021/12/28 11:06:30;;;;;;;3.38;2.08;;;9.80;99.90;;;;;;5054503;28;20477;-81
2021/12/28 11:09:08;;;;;;;2.15;1.40;;;9.70;99.90;;;;;;5054647;28;20025;-79
2021/12/28 11:11:35;;;;;;;6.82;2.40;;;9.70;99.90;;;;;;5054864;28;20017;-79
2021/12/28 11:14:05;;;;;;;2.60;1.70;;;9.60;99.90;;;;;;5053147;28;20499;-81
2021/12/28 11:16:33;;;;;;;2.47;1.08;;;9.40;99.90;;;;;;5053185;28;20112;-80
2021/12/28 11:19:01;;;;;;;1.20;0.75;;;9.30;99.90;;;;;;5054424;28;20028;-80
2021/12/28 11:21:34;;;;;;;1.45;0.90;;;9.30;99.90;;;;;;5053017;28;20021;-80
2021/12/28 11:24:13;;;;;;;1.23;0.95;;;9.30;99.90;;;;;;5053055;28;20021;-81
2021/12/28 11:26:50;;;;;;;1.67;0.95;;;9.30;99.90;;;;;;5054124;28;20032;-80
2021/12/28 11:29:17;;;;;;;2.67;1.30;;;9.20;99.90;;;;;;5052954;28;20120;-80
2021/12/28 11:31:50;;;;;;;1.42;1.00;;;9.10;99.90;;;;;;5052852;28;20017;-81
2021/12/28 11:34:30;;;;;;;4.68;1.15;;;9.10;99.90;;;;;;5052869;28;20051;-80
2021/12/28 11:37:02;;;;;;;1.65;0.88;;;8.90;99.90;;;;;;5053574;28;20029;-80
2021/12/28 11:39:34;;;;;;;11.43;6.90;;;8.90;99.90;;;;;;5054005;28;20073;-80
2021/12/28 11:42:02;;;;;;;4.50;3.05;;;8.90;99.90;;;;;;5053768;28;20044;-80
2021/12/28 11:44:32;;;;;;;2.75;1.65;;;8.90;99.90;;;;;;5052591;28;20024;-80
2021/12/28 11:47:00;;;;;;;1.40;1.20;;;8.80;99.90;;;;;;5052541;28;20032;-80
2021/12/28 11:49:28;;;;;;;2.40;1.00;;;8.70;99.90;;;;;;5052486;28;20017;-80
2021/12/28 11:52:00;;;;;;;1.40;1.10;;;8.80;99.90;;;;;;5052476;28;20025;-80
2021/12/28 11:54:28;;;;;;;1.70;0.82;;;8.80;99.90;;;;;;5052388;28;20025;-80
2021/12/28 11:57:00;;;;;;;1.60;0.95;;;8.80;99.90;;;;;;5053967;28;20035;-80
2021/12/28 11:59:30;;;;;;;2.92;1.10;;;8.80;99.90;;;;;;5052405;28;20068;-80
2021/12/28 12:02:06;;;;;;;2.65;1.40;;;8.70;99.90;;;;;;5052315;28;20440;-80
2021/12/28 12:07:09;;;;;;;1.23;1.13;;;8.80;99.90;;;;;;5053756;28;20029;-80
2021/12/28 12:09:55;;;;;;;2.20;1.55;;;8.90;99.90;;;;;;5053850;28;20048;-81
2021/12/28 12:12:30;;;;;;;1.45;1.23;;;8.70;99.90;;;;;;5053286;28;20013;-80
2021/12/28 12:14:58;;;;;;;2.03;1.38;;;8.80;99.90;;;;;;5052088;28;20083;-81
2021/12/28 12:17:30;;;;;;;3.28;1.75;;;8.80;99.90;;;;;;5052026;28;20026;-80
2021/12/28 12:20:00;;;;;;;5.32;1.70;;;8.80;99.90;;;;;;5052078;28;20516;-81
2021/12/28 12:22:32;;;;;;;4.05;2.13;;;8.80;99.90;;;;;;5053285;28;20021;-80
2021/12/28 12:25:07;;;;;;;2.33;1.60;;;8.90;99.90;;;;;;5051987;28;20028;-81
2021/12/28 12:28:00;;;;;;;2.38;1.58;;;9.00;99.90;;;;;;5053154;28;20027;-81
2021/12/28 12:30:28;;;;;;;1.58;1.23;;;9.10;99.90;;;;;;5053206;28;20071;-80
2021/12/28 12:33:07;;;;;;;1.88;1.17;;;9.20;99.90;;;;;;5053420;28;20376;-80
2021/12/28 12:35:36;;;;;;;1.52;1.02;;;9.20;99.90;;;;;;5051836;28;20384;-81
2021/12/28 12:38:23;;;;;;;3.33;1.27;;;9.20;99.90;;;;;;5051633;28;20051;-81
2021/12/28 12:41:03;;;;;;;1.70;1.10;;;9.20;99.90;;;;;;5047864;28;20049;-81
2021/12/28 12:43:40;;;;;;;5.25;1.25;;;9.30;99.90;;;;;;5051658;28;20090;-79
2021/12/28 12:46:26;;;;;;;1.65;1.20;;;9.40;99.90;;;;;;5051554;28;20029;-78
2021/12/28 12:48:55;;;;;;;1.40;0.80;;;9.40;99.90;;;;;;5051676;28;20021;-78
2021/12/28 12:51:23;;;;;;;3.05;1.10;;;9.50;99.90;;;;;;5051626;28;20052;-78
2021/12/28 12:54:12;;;;;;;1.23;0.85;;;9.50;99.90;;;;;;5051532;28;20477;-79
2021/12/28 12:56:55;;;;;;;5.40;2.92;;;9.40;99.90;;;;;;5051646;28;20024;-79
2021/12/28 12:59:26;;;;;;;1.65;0.65;;;9.50;99.90;;;;;;5052870;28;20021;-78